sensor_id;sensor_type;location;lat;lon;timestamp;pressure;altitude;pressure_sealevel;temperature;humidity
64516;BME280;50891;37.380;-122.076;2022-11-20T00:01:22;101634.47;;;27.17;36.44
64516;BME280;50891;37.380;-122.076;2022-11-20T00:03:50;101633.88;;;27.15;36.61
64516;BME280;50891;37.380;-122.076;2022-11-20T00:06:17;101641.16;;;27.15;36.58
64516;BME280;50891;37.380;-122.076;2022-11-20T00:08:44;101637.63;;;27.14;36.52
64516;BME280;50891;37.380;-122.076;2022-11-20T00:11:13;101650.31;;;27.14;36.47
64516;BME280;50891;37.380;-122.076;2022-11-20T00:13:40;101643.25;;;27.12;36.58
64516;BME280;50891;37.380;-122.076;2022-11-20T00:16:09;101642.88;;;27.09;36.64
64516;BME280;50891;37.380;-122.076;2022-11-20T00:18:36;101638.19;;;26.98;36.60
64516;BME280;50891;37.380;-122.076;2022-11-20T00:21:09;101649.16;;;27.03;36.42
64516;BME280;50891;37.380;-122.076;2022-11-20T00:23:36;101636.97;;;26.94;36.17
64516;BME280;50891;37.380;-122.076;2022-11-20T00:26:04;101654.75;;;27.01;36.33
64516;BME280;50891;37.380;-122.076;2022-11-20T00:28:30;101658.50;;;27.00;36.38
64516;BME280;50891;37.380;-122.076;2022-11-20T00:31:08;101656.03;;;26.99;36.47
64516;BME280;50891;37.380;-122.076;2022-11-20T00:33:35;101654.16;;;26.99;36.27
64516;BME280;50891;37.380;-122.076;2022-11-20T00:36:13;101653.56;;;26.97;36.27
64516;BME280;50891;37.380;-122.076;2022-11-20T00:38:40;101657.09;;;26.98;36.35
64516;BME280;50891;37.380;-122.076;2022-11-20T00:41:09;101651.69;;;26.98;36.23
64516;BME280;50891;37.380;-122.076;2022-11-20T00:43:36;101643.00;;;26.89;36.26
64516;BME280;50891;37.380;-122.076;2022-11-20T00:46:08;101659.16;;;26.96;36.33
64516;BME280;50891;37.380;-122.076;2022-11-20T00:48:34;101657.78;;;26.86;36.28
64516;BME280;50891;37.380;-122.076;2022-11-20T00:51:01;101653.59;;;26.90;36.32
64516;BME280;50891;37.380;-122.076;2022-11-20T00:53:27;101659.44;;;26.87;36.40
64516;BME280;50891;37.380;-122.076;2022-11-20T00:58:27;101670.06;;;26.82;36.41
64516;BME280;50891;37.380;-122.076;2022-11-20T01:03:36;101671.97;;;26.75;36.21
64516;BME280;50891;37.380;-122.076;2022-11-20T01:08:45;101674.09;;;26.66;35.98
64516;BME280;50891;37.380;-122.076;2022-11-20T01:11:14;101681.81;;;26.63;36.12
64516;BME280;50891;37.380;-122.076;2022-11-20T01:13:42;101684.94;;;26.60;36.17
64516;BME280;50891;37.380;-122.076;2022-11-20T01:16:17;101682.47;;;26.58;36.09
64516;BME280;50891;37.380;-122.076;2022-11-20T01:18:45;101689.50;;;26.53;36.47
64516;BME280;50891;37.380;-122.076;2022-11-20T01:21:18;101679.63;;;26.40;36.58
64516;BME280;50891;37.380;-122.076;2022-11-20T01:23:45;101695.78;;;26.46;36.68
64516;BME280;50891;37.380;-122.076;2022-11-20T01:26:14;101699.72;;;26.44;36.73
64516;BME280;50891;37.380;-122.076;2022-11-20T01:28:41;101700.38;;;26.39;36.91
64516;BME280;50891;37.380;-122.076;2022-11-20T01:31:16;101708.50;;;26.33;37.23
64516;BME280;50891;37.380;-122.076;2022-11-20T01:33:43;101701.66;;;26.30;37.26
64516;BME280;50891;37.380;-122.076;2022-11-20T01:36:10;101706.66;;;26.20;37.52
64516;BME280;50891;37.380;-122.076;2022-11-20T01:38:37;101716.16;;;26.29;37.33
64516;BME280;50891;37.380;-122.076;2022-11-20T01:41:04;101723.06;;;26.25;37.38
64516;BME280;50891;37.380;-122.076;2022-11-20T01:43:31;101723.88;;;26.25;37.29
64516;BME280;50891;37.380;-122.076;2022-11-20T01:46:18;101723.63;;;26.27;37.56
64516;BME280;50891;37.380;-122.076;2022-11-20T01:48:58;101729.25;;;26.25;37.88
64516;BME280;50891;37.380;-122.076;2022-11-20T01:51:35;101731.13;;;26.25;37.52
64516;BME280;50891;37.380;-122.076;2022-11-20T01:54:16;101724.94;;;26.18;37.79
64516;BME280;50891;37.380;-122.076;2022-11-20T01:56:44;101733.44;;;26.15;37.79
64516;BME280;50891;37.380;-122.076;2022-11-20T01:59:14;101743.19;;;26.16;37.87
64516;BME280;50891;37.380;-122.076;2022-11-20T02:01:41;101730.53;;;26.10;38.20
64516;BME280;50891;37.380;-122.076;2022-11-20T02:04:08;101739.44;;;26.17;38.04
64516;BME280;50891;37.380;-122.076;2022-11-20T02:06:42;101745.69;;;26.11;38.17
64516;BME280;50891;37.380;-122.076;2022-11-20T02:09:10;101744.03;;;26.03;38.40
64516;BME280;50891;37.380;-122.076;2022-11-20T02:11:37;101754.00;;;26.02;38.58
64516;BME280;50891;37.380;-122.076;2022-11-20T02:14:03;101744.88;;;26.03;38.84
64516;BME280;50891;37.380;-122.076;2022-11-20T02:16:44;101753.56;;;26.05;38.77
64516;BME280;50891;37.380;-122.076;2022-11-20T02:19:24;101751.09;;;26.04;39.20
64516;BME280;50891;37.380;-122.076;2022-11-20T02:22:14;101756.06;;;26.07;39.40
64516;BME280;50891;37.380;-122.076;2022-11-20T02:24:45;101769.34;;;26.02;39.55
64516;BME280;50891;37.380;-122.076;2022-11-20T02:27:14;101761.66;;;26.05;39.79
64516;BME280;50891;37.380;-122.076;2022-11-20T02:30:07;101762.72;;;26.04;39.53
64516;BME280;50891;37.380;-122.076;2022-11-20T02:32:35;101765.19;;;26.06;39.75
64516;BME280;50891;37.380;-122.076;2022-11-20T02:35:08;101773.50;;;25.98;39.99
64516;BME280;50891;37.380;-122.076;2022-11-20T02:37:38;101784.09;;;25.99;39.70
64516;BME280;50891;37.380;-122.076;2022-11-20T02:40:06;101784.09;;;25.99;39.39
64516;BME280;50891;37.380;-122.076;2022-11-20T02:42:32;101779.72;;;25.98;39.52
64516;BME280;50891;37.380;-122.076;2022-11-20T02:44:58;101777.44;;;25.95;39.37
64516;BME280;50891;37.380;-122.076;2022-11-20T02:47:24;101784.72;;;25.95;39.40
64516;BME280;50891;37.380;-122.076;2022-11-20T02:49:50;101780.34;;;25.94;39.30
64516;BME280;50891;37.380;-122.076;2022-11-20T02:52:17;101784.28;;;25.91;39.24
64516;BME280;50891;37.380;-122.076;2022-11-20T02:54:43;101782.22;;;25.86;39.91
64516;BME280;50891;37.380;-122.076;2022-11-20T02:57:09;101789.03;;;25.82;39.35
64516;BME280;50891;37.380;-122.076;2022-11-20T02:59:35;101791.09;;;25.80;39.31
64516;BME280;50891;37.380;-122.076;2022-11-20T03:02:01;101790.69;;;25.77;39.47
64516;BME280;50891;37.380;-122.076;2022-11-20T03:04:27;101786.75;;;25.73;39.74
64516;BME280;50891;37.380;-122.076;2022-11-20T03:06:54;101788.19;;;25.69;39.84
64516;BME280;50891;37.380;-122.076;2022-11-20T03:09:20;101788.44;;;25.67;39.86
64516;BME280;50891;37.380;-122.076;2022-11-20T03:11:47;101788.63;;;25.65;39.92
64516;BME280;50891;37.380;-122.076;2022-11-20T03:14:13;101794.00;;;25.65;39.82
64516;BME280;50891;37.380;-122.076;2022-11-20T03:16:40;101783.66;;;25.56;39.85
64516;BME280;50891;37.380;-122.076;2022-11-20T03:19:06;101794.81;;;25.59;39.94
64516;BME280;50891;37.380;-122.076;2022-11-20T03:21:35;101778.44;;;25.48;40.09
64516;BME280;50891;37.380;-122.076;2022-11-20T03:24:02;101792.16;;;25.53;40.10
64516;BME280;50891;37.380;-122.076;2022-11-20T03:26:28;101792.97;;;25.53;40.11
64516;BME280;50891;37.380;-122.076;2022-11-20T03:28:59;101798.38;;;25.53;40.31
64516;BME280;50891;37.380;-122.076;2022-11-20T03:31:28;101796.31;;;25.55;40.30
64516;BME280;50891;37.380;-122.076;2022-11-20T03:33:56;101805.00;;;25.51;40.58
64516;BME280;50891;37.380;-122.076;2022-11-20T03:36:23;101803.56;;;25.48;40.65
64516;BME280;50891;37.380;-122.076;2022-11-20T03:38:49;101800.84;;;25.48;40.88
64516;BME280;50891;37.380;-122.076;2022-11-20T03:41:18;101801.69;;;25.49;40.65
64516;BME280;50891;37.380;-122.076;2022-11-20T03:43:53;101802.50;;;25.49;40.60
64516;BME280;50891;37.380;-122.076;2022-11-20T03:46:20;101809.94;;;25.47;40.47
64516;BME280;50891;37.380;-122.076;2022-11-20T03:48:46;101809.94;;;25.47;40.57
64516;BME280;50891;37.380;-122.076;2022-11-20T03:51:15;101808.31;;;25.46;40.47
64516;BME280;50891;37.380;-122.076;2022-11-20T03:53:43;101812.88;;;25.46;40.48
64516;BME280;50891;37.380;-122.076;2022-11-20T03:56:10;101796.69;;;25.32;40.41
64516;BME280;50891;37.380;-122.076;2022-11-20T03:58:38;101816.59;;;25.44;40.38
64516;BME280;50891;37.380;-122.076;2022-11-20T04:01:12;101821.97;;;25.44;40.50
64516;BME280;50891;37.380;-122.076;2022-11-20T04:03:39;101823.00;;;25.37;40.28
64516;BME280;50891;37.380;-122.076;2022-11-20T04:06:11;101824.44;;;25.33;40.01
64516;BME280;50891;37.380;-122.076;2022-11-20T04:08:38;101828.78;;;25.34;39.91
64516;BME280;50891;37.380;-122.076;2022-11-20T04:13:40;101828.56;;;25.29;40.26
64516;BME280;50891;37.380;-122.076;2022-11-20T04:16:08;101824.03;;;25.29;40.16
64516;BME280;50891;37.380;-122.076;2022-11-20T04:18:35;101832.31;;;25.28;40.17
64516;BME280;50891;37.380;-122.076;2022-11-20T04:21:03;101839.97;;;25.31;40.08
64516;BME280;50891;37.380;-122.076;2022-11-20T04:23:29;101841.41;;;25.27;40.04
64516;BME280;50891;37.380;-122.076;2022-11-20T04:26:07;101831.88;;;25.24;40.25
64516;BME280;50891;37.380;-122.076;2022-11-20T04:28:34;101847.63;;;25.20;40.24
64516;BME280;50891;37.380;-122.076;2022-11-20T04:31:09;101841.59;;;25.18;40.09
64516;BME280;50891;37.380;-122.076;2022-11-20T04:33:36;101844.22;;;25.12;40.11
64516;BME280;50891;37.380;-122.076;2022-11-20T04:36:09;101840.50;;;25.13;40.06
64516;BME280;50891;37.380;-122.076;2022-11-20T04:38:36;101842.59;;;25.11;39.81
64516;BME280;50891;37.380;-122.076;2022-11-20T04:41:04;101842.59;;;25.11;40.08
64516;BME280;50891;37.380;-122.076;2022-11-20T04:43:32;101840.28;;;25.08;40.10
64516;BME280;50891;37.380;-122.076;2022-11-20T04:45:59;101841.31;;;25.07;40.07
64516;BME280;50891;37.380;-122.076;2022-11-20T04:48:27;101836.13;;;25.05;40.09
64516;BME280;50891;37.380;-122.076;2022-11-20T04:50:54;101845.44;;;25.02;40.08
64516;BME280;50891;37.380;-122.076;2022-11-20T04:53:21;101849.56;;;24.98;40.15
64516;BME280;50891;37.380;-122.076;2022-11-20T04:55:48;101849.78;;;24.97;39.99
64516;BME280;50891;37.380;-122.076;2022-11-20T04:58:14;101849.78;;;24.97;39.95
64516;BME280;50891;37.380;-122.076;2022-11-20T05:00:41;101851.63;;;24.96;39.80
64516;BME280;50891;37.380;-122.076;2022-11-20T05:03:07;101861.97;;;24.93;39.97
64516;BME280;50891;37.380;-122.076;2022-11-20T05:05:34;101849.09;;;24.81;39.78
64516;BME280;50891;37.380;-122.076;2022-11-20T05:08:00;101863.16;;;24.84;39.64
64516;BME280;50891;37.380;-122.076;2022-11-20T05:10:28;101872.28;;;24.83;39.73
64516;BME280;50891;37.380;-122.076;2022-11-20T05:12:54;101876.81;;;24.82;39.90
64516;BME280;50891;37.380;-122.076;2022-11-20T05:15:20;101868.09;;;24.80;39.77
64516;BME280;50891;37.380;-122.076;2022-11-20T05:17:50;101878.88;;;24.80;39.63
64516;BME280;50891;37.380;-122.076;2022-11-20T05:20:16;101854.34;;;24.55;39.28
64516;BME280;50891;37.380;-122.076;2022-11-20T05:22:43;101880.88;;;24.65;38.08
64516;BME280;50891;37.380;-122.076;2022-11-20T05:25:10;101884.97;;;24.60;38.01
64516;BME280;50891;37.380;-122.076;2022-11-20T05:27:37;101889.50;;;24.53;38.04
64516;BME280;50891;37.380;-122.076;2022-11-20T05:30:04;101886.75;;;24.47;37.99
64516;BME280;50891;37.380;-122.076;2022-11-20T05:32:30;101882.75;;;24.36;38.01
64516;BME280;50891;37.380;-122.076;2022-11-20T05:34:57;101859.66;;;24.20;38.04
64516;BME280;50891;37.380;-122.076;2022-11-20T05:37:23;101893.69;;;24.34;38.12
64516;BME280;50891;37.380;-122.076;2022-11-20T05:39:49;101881.47;;;24.32;37.29
64516;BME280;50891;37.380;-122.076;2022-11-20T05:42:15;101895.66;;;24.26;37.85
64516;BME280;50891;37.380;-122.076;2022-11-20T05:45:01;101889.88;;;24.22;37.73
64516;BME280;50891;37.380;-122.076;2022-11-20T05:47:32;101886.09;;;24.16;37.48
64516;BME280;50891;37.380;-122.076;2022-11-20T05:49:59;101890.41;;;24.11;37.25
64516;BME280;50891;37.380;-122.076;2022-11-20T05:52:28;101891.16;;;24.05;37.52
64516;BME280;50891;37.380;-122.076;2022-11-20T05:54:55;101890.72;;;24.01;37.07
64516;BME280;50891;37.380;-122.076;2022-11-20T05:57:21;101896.69;;;23.96;36.92
64516;BME280;50891;37.380;-122.076;2022-11-20T05:59:47;101897.25;;;23.92;37.06
64516;BME280;50891;37.380;-122.076;2022-11-20T06:02:13;101909.97;;;23.83;37.93
64516;BME280;50891;37.380;-122.076;2022-11-20T06:04:40;101905.25;;;23.85;36.86
64516;BME280;50891;37.380;-122.076;2022-11-20T06:07:06;101900.00;;;23.77;35.83
64516;BME280;50891;37.380;-122.076;2022-11-20T06:09:33;101910.81;;;23.84;35.77
64516;BME280;50891;37.380;-122.076;2022-11-20T06:11:59;101910.38;;;23.80;35.95
